This is the latest recevied weather packets stored in our database for station/object SR5NLK-1. If no packets are shown the sender has not sent any weather packets the latest 10 day(s).
| Time | Temp. | Humidity | Pressure | Rain* | Wind** | Luminosity | Snow |
|---|---|---|---|---|---|---|---|
| 1788072923 | 31.67° C | 43% | 1059.5 hPa | 0 mm | - | - | - |
| 1788072892 | 31.67° C | 43% | 1059.5 hPa | 0 mm | - | - | - |
| 1788072592 | 31.11° C | 43% | 1043.8 hPa | 0 mm | - | - | - |
| 1788072292 | 31.67° C | 42% | 1065.8 hPa | 0 mm | - | - | - |
| 1788071992 | 32.78° C | 42% | 1066.8 hPa | 0 mm | - | - | - |
| 1788071692 | 32.78° C | 44% | 1059.9 hPa | 0 mm | - | - | - |
| 1788071392 | 32.22° C | 44% | 1076.6 hPa | 0 mm | - | - | - |
| 1788071271 | 31.67° C | 45% | 1033.8 hPa | 0 mm | - | - | - |
| 1788071092 | 31.67° C | 46% | 1004.3 hPa | 0 mm | - | - | - |
| 1788070792 | 30.56° C | 47% | 1043.7 hPa | 0 mm | - | - | - |
| 1788070523 | 30° C | 48% | 1059.9 hPa | 0 mm | - | - | - |
| 1788070492 | 30° C | 48% | 1059.9 hPa | 0 mm | - | - | - |
| 1788070192 | 30° C | 49% | 1062.6 hPa | 0 mm | - | - | - |
| 1788070049 | 30° C | 49% | 1017.3 hPa | 0 mm | - | - | - |
| 1788070007 | 30° C | 49% | 1017.3 hPa | 0 mm | - | - | - |
| 1788069892 | 30° C | 49% | 1017.3 hPa | 0 mm | - | - | - |
| 1788069592 | 29.44° C | 51% | 1053.8 hPa | 0 mm | - | - | - |
| 1788069326 | 28.89° C | 54% | 1022.5 hPa | 0 mm | - | - | - |
| 1788069291 | 28.89° C | 54% | 1022.5 hPa | 0 mm | - | - | - |
| 1788069030 | 27.78° C | 56% | 1026.3 hPa | 0 mm | - | - | - |
| 1788068992 | 27.78° C | 56% | 1026.3 hPa | 0 mm | - | - | - |
| 1788068796 | 27.22° C | 58% | 1053.2 hPa | 0 mm | - | - | - |
| 1788068744 | 27.22° C | 58% | 1053.2 hPa | 0 mm | - | - | - |
| 1788068692 | 27.22° C | 58% | 1053.2 hPa | 0 mm | - | - | - |
| 1788068392 | 26.11° C | 62% | 1043.8 hPa | 0 mm | - | - | - |
* Rain latest hour (hover to see other rain measurements)
** Current wind speed in m/s (hover to see current wind gust speed)